MET'MAP v2.0
soon released !

Expected late october,
this new version will be
more efficient, smarter,
and hosted on a brand new
server x3 powerfull...
...and still free !


Not compatible ?
Try the mobile version !

LOG IN : | Subscribe | Disclaimer | Who is Orbifly ? |
ICAO code :

TAF - EGPK Glasgow Prestwick - 29 Oct 2020 08:48 UTC - Data Source NOAA   


- Airport Elevation : 65 ft
- IATA code : PIK
- No reported NOTAMs.


EGPK - Glasgow Prestwick

Latest METAR recorded : 2015/08/11 07:50 EGPK 110750Z 24009KT 9999 FEW012 SCT028 14/12 Q1018
TAF TAF EGPK
Valid from the 29 at 06:00 until the 30 at 06:00 UTC


290500Z 2906/3006 22012KT 9999 SCT025
BECMG 2906/2909 14012KT
TEMPO 2907/3003 7000 RA -RADZ BKN012
PROB30
TEMPO 2907/2915 15015G25KT
PROB40
TEMPO 2912/2918 4000 +RA BKN007
BECMG 2913/2916 22018G32KT
PROB40
TEMPO 2918/3002 4000 DZ BKN007
BECMG 3003/3006 28014KT
PROB40
TEMPO 3003/3006 7000 RA SHRA BKN010

Source NOAA


MET'MAP, your aeronautical weather chart ! - Copyright ORBIFLY December 2007

Programming & Development : Alexandra Zaïnal
Co-Developer : Marc-Olivier Méhu
Technical & hardware support : Manuel Goepfert
Concept & Financing : Baudouin d'Aumeries